createdAt,value
2023-03-08T00:00:57.760Z,21.57
2023-03-08T00:03:25.494Z,24.33
2023-03-08T00:05:53.252Z,22.07
2023-03-08T00:08:22.324Z,26.33
2023-03-08T00:10:49.959Z,22.90
2023-03-08T00:13:17.654Z,27.13
2023-03-08T00:15:45.409Z,26.57
2023-03-08T00:18:13.266Z,27.97
2023-03-08T00:20:40.965Z,28.03
2023-03-08T00:23:09.910Z,31.70
2023-03-08T00:25:38.971Z,29.23
2023-03-08T00:28:06.633Z,23.90
2023-03-08T00:30:34.277Z,28.80
2023-03-08T00:33:02.002Z,32.23
2023-03-08T00:35:29.671Z,37.63
2023-03-08T00:37:57.316Z,25.83
2023-03-08T00:40:25.030Z,28.10
2023-03-08T00:42:54.048Z,30.20
2023-03-08T00:45:21.744Z,33.47
2023-03-08T00:47:49.428Z,30.30
2023-03-08T00:50:17.542Z,30.03
2023-03-08T00:52:45.193Z,28.87
2023-03-08T00:55:12.891Z,31.30
2023-03-08T00:57:40.526Z,35.10
2023-03-08T01:00:12.912Z,32.47
2023-03-08T01:02:41.319Z,30.53
2023-03-08T01:05:10.253Z,32.60
2023-03-08T01:07:37.952Z,33.27
2023-03-08T01:10:06.236Z,30.93
2023-03-08T01:12:34.089Z,33.63
2023-03-08T01:15:01.878Z,30.00
2023-03-08T01:17:30.915Z,28.33
2023-03-08T01:19:58.862Z,25.87
2023-03-08T01:22:26.575Z,31.23
2023-03-08T01:24:54.289Z,28.27
2023-03-08T01:27:21.961Z,30.00
2023-03-08T01:29:49.648Z,27.57
2023-03-08T01:32:17.378Z,32.33
2023-03-08T01:34:46.434Z,29.80
2023-03-08T01:37:14.148Z,34.27
2023-03-08T01:39:41.819Z,32.20
2023-03-08T01:42:09.724Z,31.67
2023-03-08T01:44:53.386Z,32.03
2023-03-08T01:47:22.435Z,36.40
2023-03-08T01:49:52.168Z,35.60
2023-03-08T01:52:22.089Z,32.83
2023-03-08T01:54:51.155Z,32.27
2023-03-08T01:57:22.215Z,30.87
2023-03-08T01:59:51.174Z,39.77
2023-03-08T02:02:20.172Z,32.00
2023-03-08T02:04:47.809Z,34.87
2023-03-08T02:07:17.035Z,37.10
2023-03-08T02:09:45.243Z,38.50
2023-03-08T02:12:14.214Z,38.67
2023-03-08T02:14:42.729Z,33.23
2023-03-08T02:17:10.587Z,35.30
2023-03-08T02:19:44.399Z,33.53
2023-03-08T02:22:12.768Z,32.27
2023-03-08T02:24:41.834Z,35.27
2023-03-08T02:27:13.933Z,32.53
2023-03-08T02:29:42.155Z,31.17
2023-03-08T02:32:10.146Z,38.37
2023-03-08T02:34:37.939Z,40.80
2023-03-08T02:37:05.639Z,35.13
2023-03-08T02:39:33.292Z,32.07
2023-03-08T02:42:02.306Z,36.87
2023-03-08T02:44:29.915Z,33.07
2023-03-08T02:46:57.573Z,40.33
2023-03-08T02:49:25.329Z,43.10
2023-03-08T02:51:53.086Z,38.07
2023-03-08T02:54:20.783Z,41.10
2023-03-08T02:56:48.477Z,37.43
2023-03-08T02:59:17.484Z,37.40
2023-03-08T03:01:45.231Z,30.53
2023-03-08T03:04:12.933Z,39.13
2023-03-08T03:06:40.644Z,33.50
2023-03-08T03:09:09.083Z,36.23
2023-03-08T03:11:36.932Z,36.80
2023-03-08T03:14:04.617Z,30.30
2023-03-08T03:16:33.998Z,29.77
2023-03-08T03:19:01.803Z,31.67
2023-03-08T03:21:29.784Z,32.50
2023-03-08T03:23:57.589Z,33.93
2023-03-08T03:26:27.410Z,37.10
2023-03-08T03:28:57.526Z,40.70
2023-03-08T03:31:25.659Z,37.67
2023-03-08T03:33:54.996Z,38.97
2023-03-08T03:36:23.305Z,41.63
2023-03-08T03:38:51.329Z,39.90
2023-03-08T03:41:21.123Z,41.47
2023-03-08T03:43:49.287Z,43.77
2023-03-08T03:46:18.548Z,44.10
2023-03-08T03:48:46.582Z,42.23
2023-03-08T03:51:17.461Z,40.53
2023-03-08T03:53:45.337Z,41.87
2023-03-08T03:56:14.797Z,39.80
2023-03-08T03:58:42.754Z,43.10
2023-03-08T04:01:11.287Z,46.37
2023-03-08T04:03:39.113Z,42.37
2023-03-08T04:06:08.575Z,43.27
2023-03-08T04:08:42.086Z,47.83
2023-03-08T04:11:10.240Z,45.70
2023-03-08T04:13:38.247Z,43.43
2023-03-08T04:16:12.497Z,45.77
2023-03-08T04:18:40.291Z,51.73
2023-03-08T04:21:08.245Z,48.33
2023-03-08T04:23:37.519Z,53.27
2023-03-08T04:26:05.834Z,52.53
2023-03-08T04:28:34.119Z,51.20
2023-03-08T04:31:02.415Z,57.00
2023-03-08T04:33:30.076Z,55.03
2023-03-08T04:35:57.806Z,61.10
2023-03-08T04:38:25.492Z,66.50
2023-03-08T04:41:05.441Z,70.23
2023-03-08T04:43:33.848Z,79.00
2023-03-08T04:46:02.417Z,73.93
2023-03-08T04:48:30.212Z,78.63
2023-03-08T04:50:59.460Z,73.67
2023-03-08T04:53:27.938Z,80.40
2023-03-08T04:55:57.143Z,69.80
2023-03-08T04:58:24.820Z,72.10
2023-03-08T05:00:52.617Z,85.90
2023-03-08T05:03:20.303Z,82.10
2023-03-08T05:05:48.579Z,79.10
2023-03-08T05:08:16.280Z,79.47
2023-03-08T05:10:48.288Z,74.60
2023-03-08T05:13:17.605Z,99.27
2023-03-08T05:15:45.275Z,90.40
2023-03-08T05:18:13.181Z,86.87
2023-03-08T05:20:40.892Z,96.10
2023-03-08T05:23:08.556Z,91.17
2023-03-08T05:25:36.191Z,105.27
2023-03-08T05:28:03.812Z,95.10
2023-03-08T05:30:32.860Z,87.00
2023-03-08T05:33:00.498Z,110.73
2023-03-08T05:35:28.201Z,118.13
2023-03-08T05:37:55.814Z,144.13
2023-03-08T05:40:23.457Z,138.63
2023-03-08T05:42:51.148Z,152.83
2023-03-08T05:45:18.914Z,253.90
2023-03-08T05:47:47.992Z,202.33
2023-03-08T05:50:15.635Z,140.87
2023-03-08T05:52:43.547Z,111.03
2023-03-08T05:55:11.393Z,137.37
2023-03-08T05:57:39.347Z,159.67
2023-03-08T06:00:08.268Z,132.87
2023-03-08T06:02:35.974Z,155.97
2023-03-08T06:05:05.588Z,251.00
2023-03-08T06:08:40.337Z,138.73
2023-03-08T06:11:08.220Z,122.43
2023-03-08T06:13:36.970Z,103.70
2023-03-08T06:16:06.099Z,134.87
2023-03-08T06:18:34.566Z,91.33
2023-03-08T06:21:03.929Z,109.70
2023-03-08T06:23:32.715Z,112.10
2023-03-08T06:26:02.007Z,95.57
2023-03-08T06:28:30.181Z,96.67
2023-03-08T06:30:58.312Z,91.27
2023-03-08T06:33:27.926Z,85.30
2023-03-08T06:35:59.373Z,76.33
2023-03-08T06:38:29.740Z,88.20
2023-03-08T06:40:58.324Z,89.43
2023-03-08T06:43:27.778Z,100.30
2023-03-08T06:45:55.805Z,84.73
2023-03-08T06:48:23.952Z,102.03
2023-03-08T06:50:51.834Z,148.33
2023-03-08T06:53:19.478Z,129.93
2023-03-08T06:55:47.131Z,138.07
2023-03-08T06:58:14.895Z,129.40
2023-03-08T07:00:43.965Z,195.97
2023-03-08T07:03:12.440Z,147.97
2023-03-08T07:05:40.405Z,163.63
2023-03-08T07:08:08.601Z,85.07
2023-03-08T07:10:36.262Z,96.97
2023-03-08T07:13:04.002Z,75.67
2023-03-08T07:15:31.788Z,77.07
2023-03-08T07:18:00.861Z,94.73
2023-03-08T07:20:28.670Z,70.20
2023-03-08T07:22:57.100Z,193.13
2023-03-08T07:25:24.786Z,103.67
2023-03-08T07:27:52.439Z,121.30
2023-03-08T07:30:20.462Z,86.30
2023-03-08T07:32:48.335Z,175.20
2023-03-08T07:35:17.613Z,246.03
2023-03-08T07:37:46.544Z,141.57
2023-03-08T07:40:16.271Z,81.30
2023-03-08T07:42:44.116Z,116.87
2023-03-08T07:45:12.835Z,118.50
2023-03-08T07:47:40.672Z,131.57
2023-03-08T07:50:09.402Z,73.87
2023-03-08T07:52:38.463Z,143.70
2023-03-08T07:55:07.370Z,172.43
2023-03-08T07:57:35.106Z,189.20
2023-03-08T08:00:07.339Z,101.13
2023-03-08T08:02:35.091Z,115.23
2023-03-08T08:05:04.032Z,157.27
2023-03-08T08:07:32.218Z,111.07
2023-03-08T08:10:01.271Z,167.27
2023-03-08T08:12:28.957Z,194.17
2023-03-08T08:14:56.690Z,266.73
2023-03-08T08:17:24.328Z,177.30
2023-03-08T08:19:52.084Z,127.20
2023-03-08T08:22:19.696Z,201.57
2023-03-08T08:24:47.380Z,72.17
2023-03-08T08:27:16.409Z,87.03
2023-03-08T08:29:46.150Z,72.03
2023-03-08T08:32:14.074Z,67.10
2023-03-08T08:34:41.745Z,65.00
2023-03-08T08:37:09.367Z,68.80
2023-03-08T08:39:37.085Z,127.93
2023-03-08T08:42:05.039Z,60.53
2023-03-08T08:44:34.085Z,50.73
2023-03-08T08:47:01.739Z,58.57
2023-03-08T08:49:29.421Z,65.13
2023-03-08T08:51:57.139Z,44.60
2023-03-08T08:54:24.879Z,44.07
2023-03-08T08:56:52.535Z,40.07
2023-03-08T08:59:20.219Z,62.60
2023-03-08T09:01:49.221Z,41.47
2023-03-08T09:04:17.808Z,46.53
2023-03-08T09:06:45.608Z,36.67
2023-03-08T09:09:13.276Z,34.77
2023-03-08T09:11:53.838Z,40.93
2023-03-08T09:14:22.339Z,34.03
2023-03-08T09:16:52.564Z,37.27
2023-03-08T09:19:20.579Z,43.73
2023-03-08T09:21:48.485Z,39.67
2023-03-08T09:24:16.713Z,33.97
2023-03-08T09:26:44.457Z,36.53
2023-03-08T09:29:12.855Z,37.50
2023-03-08T09:31:42.400Z,36.17
2023-03-08T09:34:14.755Z,33.43
2023-03-08T09:36:43.037Z,34.67
2023-03-08T09:39:13.130Z,37.17
2023-03-08T09:41:52.563Z,25.47
2023-03-08T09:44:53.184Z,31.37
2023-03-08T09:47:30.146Z,30.30
2023-03-08T09:50:05.915Z,32.33
2023-03-08T09:52:38.332Z,34.43
2023-03-08T09:55:10.493Z,29.77
2023-03-08T09:57:43.284Z,28.97
2023-03-08T10:00:20.841Z,28.87
2023-03-08T10:02:54.539Z,25.40
2023-03-08T10:05:24.826Z,30.60
2023-03-08T10:07:58.107Z,25.10
2023-03-08T10:10:44.792Z,28.27
2023-03-08T10:13:29.155Z,27.07
2023-03-08T10:16:03.897Z,20.70
2023-03-08T10:18:34.852Z,26.53
2023-03-08T10:21:04.592Z,32.83
2023-03-08T10:23:33.672Z,36.73
2023-03-08T10:26:02.873Z,32.73
2023-03-08T10:28:30.587Z,30.93
2023-03-08T10:30:59.601Z,33.40
2023-03-08T10:33:32.693Z,36.73
2023-03-08T10:36:04.599Z,37.93
2023-03-08T10:38:34.196Z,35.77
2023-03-08T10:41:03.477Z,37.10
2023-03-08T10:43:33.827Z,39.53
2023-03-08T10:46:02.964Z,32.10
2023-03-08T10:48:30.751Z,33.60
2023-03-08T10:51:00.593Z,36.37
2023-03-08T10:53:30.395Z,32.87
2023-03-08T10:55:59.750Z,33.40
2023-03-08T10:58:35.958Z,29.07
2023-03-08T11:01:06.248Z,28.13
2023-03-08T11:03:34.620Z,25.30
2023-03-08T11:06:04.110Z,32.07
2023-03-08T11:08:34.818Z,30.73
2023-03-08T11:11:08.402Z,22.60
2023-03-08T11:13:37.997Z,23.90
2023-03-08T11:16:14.493Z,19.30
2023-03-08T11:18:51.561Z,20.03
2023-03-08T11:21:26.578Z,20.10
2023-03-08T11:24:01.521Z,17.93
2023-03-08T11:26:36.579Z,17.60
2023-03-08T11:29:14.748Z,13.53
2023-03-08T11:31:47.313Z,12.30
2023-03-08T11:34:38.679Z,14.10
2023-03-08T11:37:12.320Z,13.03
2023-03-08T11:39:46.367Z,14.53
2023-03-08T11:42:19.720Z,13.83
2023-03-08T11:45:09.939Z,15.67
2023-03-08T11:48:02.386Z,15.03
2023-03-08T11:50:32.852Z,12.17
2023-03-08T11:53:11.838Z,16.57
2023-03-08T11:55:59.086Z,13.20
2023-03-08T11:58:29.740Z,10.97
2023-03-08T12:01:01.442Z,11.80
2023-03-08T12:03:33.014Z,9.57
2023-03-08T12:06:02.958Z,15.33
2023-03-08T12:08:33.767Z,14.83
2023-03-08T12:11:05.700Z,19.63
2023-03-08T12:13:35.397Z,18.43
2023-03-08T12:16:10.163Z,18.23
2023-03-08T12:18:41.705Z,19.87
2023-03-08T12:21:17.864Z,15.97
2023-03-08T12:23:50.869Z,18.90
2023-03-08T12:26:23.205Z,18.40
2023-03-08T12:28:54.585Z,17.57
2023-03-08T12:31:28.347Z,17.70
2023-03-08T12:33:58.183Z,16.00
2023-03-08T12:36:37.630Z,23.00
2023-03-08T12:39:10.181Z,22.37
2023-03-08T12:41:39.392Z,19.07
2023-03-08T12:44:08.541Z,18.10
2023-03-08T12:47:00.277Z,15.53
2023-03-08T12:49:33.493Z,44.13
2023-03-08T12:52:03.840Z,16.03
2023-03-08T12:54:33.897Z,24.87
2023-03-08T12:57:04.055Z,14.77
2023-03-08T12:59:37.207Z,14.80
2023-03-08T13:02:26.060Z,15.97
2023-03-08T13:05:04.811Z,14.97
2023-03-08T13:07:37.056Z,15.77
2023-03-08T13:10:09.768Z,12.13
2023-03-08T13:13:03.112Z,17.27
2023-03-08T13:15:30.848Z,11.23
2023-03-08T13:18:06.033Z,14.17
2023-03-08T13:20:50.642Z,14.77
2023-03-08T13:23:26.561Z,15.43
2023-03-08T13:26:08.197Z,14.43
2023-03-08T13:28:47.232Z,14.10
2023-03-08T13:31:18.452Z,13.10
2023-03-08T13:33:48.363Z,16.97
2023-03-08T13:36:20.186Z,15.53
2023-03-08T13:38:58.150Z,12.00
2023-03-08T13:41:33.708Z,14.47
2023-03-08T13:44:03.803Z,14.93
2023-03-08T13:46:31.646Z,11.97
2023-03-08T13:48:59.444Z,12.07
2023-03-08T13:51:29.071Z,12.00
2023-03-08T13:53:57.413Z,16.37
2023-03-08T13:56:27.569Z,12.60
2023-03-08T13:58:56.909Z,15.53
2023-03-08T14:01:27.506Z,11.50
2023-03-08T14:03:58.363Z,16.03
2023-03-08T14:06:29.878Z,12.97
2023-03-08T14:09:00.482Z,15.37
2023-03-08T14:11:30.515Z,14.97
2023-03-08T14:13:59.567Z,14.90
2023-03-08T14:16:31.550Z,16.57
2023-03-08T14:18:59.852Z,15.47
2023-03-08T14:21:29.365Z,17.97
2023-03-08T14:23:58.847Z,22.60
2023-03-08T14:26:34.852Z,14.60
2023-03-08T14:29:21.760Z,18.87
2023-03-08T14:31:55.997Z,15.47
2023-03-08T14:34:25.536Z,19.90
2023-03-08T14:36:56.544Z,18.60
2023-03-08T14:39:25.859Z,15.77
2023-03-08T14:41:53.917Z,15.60
2023-03-08T14:44:22.986Z,15.43
2023-03-08T14:46:58.163Z,13.50
2023-03-08T14:49:29.372Z,16.47
2023-03-08T14:51:57.500Z,13.50
2023-03-08T14:54:32.805Z,13.53
2023-03-08T14:57:03.820Z,14.63
2023-03-08T14:59:31.552Z,12.00
2023-03-08T15:01:59.327Z,12.60
2023-03-08T15:04:28.428Z,17.23
2023-03-08T15:06:56.141Z,15.00
2023-03-08T15:09:26.254Z,12.67
2023-03-08T15:11:57.103Z,26.47
2023-03-08T15:14:24.809Z,12.97
2023-03-08T15:16:55.066Z,13.17
2023-03-08T15:19:22.709Z,12.40
2023-03-08T15:21:51.739Z,14.27
2023-03-08T15:24:19.756Z,11.33
2023-03-08T15:26:47.672Z,15.33
2023-03-08T15:29:25.505Z,12.53
2023-03-08T15:31:53.311Z,19.83
2023-03-08T15:34:21.198Z,21.10
2023-03-08T15:36:49.911Z,13.63
2023-03-08T15:39:19.411Z,17.87
2023-03-08T15:41:47.271Z,10.93
2023-03-08T15:44:14.963Z,16.93
2023-03-08T15:46:42.938Z,14.63
2023-03-08T15:49:11.124Z,15.07
2023-03-08T15:51:39.442Z,13.60
2023-03-08T15:54:07.697Z,15.67
2023-03-08T15:56:36.781Z,14.23
2023-03-08T15:59:04.473Z,11.50
2023-03-08T16:01:33.215Z,12.77
2023-03-08T16:04:01.031Z,12.80
2023-03-08T16:06:28.788Z,11.40
2023-03-08T16:08:57.596Z,12.00
2023-03-08T16:11:25.468Z,13.57
2023-03-08T16:13:54.589Z,24.87
2023-03-08T16:16:27.638Z,17.43
2023-03-08T16:18:59.923Z,16.70
2023-03-08T16:21:27.625Z,20.10
2023-03-08T16:23:55.328Z,15.73
2023-03-08T16:26:24.168Z,11.03
2023-03-08T16:28:51.845Z,14.40
2023-03-08T16:31:21.766Z,15.67
2023-03-08T16:33:49.724Z,16.10
2023-03-08T16:36:17.368Z,17.00
2023-03-08T16:38:45.081Z,18.67
2023-03-08T16:41:14.219Z,23.03
2023-03-08T16:43:49.822Z,20.03
2023-03-08T16:46:21.374Z,29.20
2023-03-08T16:48:49.905Z,26.63
2023-03-08T16:51:18.704Z,22.03
2023-03-08T16:53:46.453Z,21.93
2023-03-08T16:56:18.592Z,16.40
2023-03-08T16:58:46.389Z,21.70
2023-03-08T17:01:14.612Z,20.53
2023-03-08T17:03:43.665Z,22.37
2023-03-08T17:06:13.342Z,18.63
2023-03-08T17:08:41.149Z,20.80
2023-03-08T17:11:15.449Z,23.17
2023-03-08T17:13:43.256Z,19.67
2023-03-08T17:16:12.871Z,26.27
2023-03-08T17:18:40.674Z,22.77
2023-03-08T17:21:09.774Z,26.20
2023-03-08T17:23:37.587Z,24.70
2023-03-08T17:26:06.421Z,25.17
2023-03-08T17:28:35.014Z,27.47
2023-03-08T17:31:03.281Z,22.90
2023-03-08T17:33:31.030Z,27.57
2023-03-08T17:36:00.018Z,29.10
2023-03-08T17:38:29.609Z,25.50
2023-03-08T17:40:57.310Z,26.47
2023-03-08T17:43:25.049Z,26.70
2023-03-08T17:45:59.670Z,30.80
2023-03-08T17:48:27.408Z,31.53
2023-03-08T17:50:55.379Z,27.60
2023-03-08T17:53:23.039Z,28.40
2023-03-08T17:55:52.178Z,21.60
2023-03-08T17:58:22.339Z,27.63
2023-03-08T18:00:51.675Z,22.10
2023-03-08T18:03:19.428Z,24.07
2023-03-08T18:05:48.941Z,23.40
2023-03-08T18:08:16.638Z,23.67
2023-03-08T18:10:44.707Z,25.43
2023-03-08T18:13:13.766Z,20.83
2023-03-08T18:15:41.541Z,29.17
2023-03-08T18:18:09.178Z,25.53
2023-03-08T18:20:36.862Z,26.93
2023-03-08T18:23:07.016Z,24.47
2023-03-08T18:25:35.180Z,25.43
2023-03-08T18:28:03.132Z,23.93
2023-03-08T18:30:32.212Z,25.53
2023-03-08T18:32:59.839Z,22.43
2023-03-08T18:35:27.597Z,22.53
2023-03-08T18:37:55.294Z,29.17
2023-03-08T18:40:23.214Z,79.57
2023-03-08T18:42:50.928Z,38.37
2023-03-08T18:45:18.932Z,40.90
2023-03-08T18:47:50.638Z,26.67
2023-03-08T18:50:19.407Z,27.03
2023-03-08T18:52:47.228Z,23.63
2023-03-08T18:55:15.122Z,21.27
2023-03-08T18:57:42.789Z,24.70
2023-03-08T19:00:12.046Z,26.40
2023-03-08T19:02:39.827Z,18.63
2023-03-08T19:05:09.839Z,22.60
2023-03-08T19:07:37.541Z,21.30
2023-03-08T19:10:06.591Z,19.57
2023-03-08T19:12:37.291Z,20.87
2023-03-08T19:15:05.746Z,23.03
2023-03-08T19:17:33.497Z,18.57
2023-03-08T19:20:01.146Z,18.13
2023-03-08T19:22:30.223Z,17.30
2023-03-08T19:24:58.002Z,18.43
2023-03-08T19:27:25.769Z,23.67
2023-03-08T19:29:53.405Z,19.03
2023-03-08T19:32:21.139Z,17.70
2023-03-08T19:34:49.172Z,19.40
2023-03-08T19:37:16.928Z,19.73
2023-03-08T19:39:47.498Z,22.03
2023-03-08T19:42:16.781Z,15.93
2023-03-08T19:44:48.253Z,17.17
2023-03-08T19:47:16.679Z,16.07
2023-03-08T19:49:44.439Z,15.50
2023-03-08T19:52:13.982Z,14.63
2023-03-08T19:54:42.930Z,16.10
2023-03-08T19:57:12.507Z,15.33
2023-03-08T19:59:40.266Z,16.40
2023-03-08T20:02:10.029Z,11.57
2023-03-08T20:04:37.732Z,15.37
2023-03-08T20:07:05.867Z,13.67
2023-03-08T20:09:33.592Z,10.40
2023-03-08T20:12:01.311Z,14.97
2023-03-08T20:14:30.514Z,15.03
2023-03-08T20:16:59.227Z,14.37
2023-03-08T20:19:27.106Z,14.97
2023-03-08T20:21:54.833Z,15.30
2023-03-08T20:24:24.136Z,15.07
2023-03-08T20:26:52.264Z,11.20
2023-03-08T20:29:20.628Z,11.67
2023-03-08T20:31:50.100Z,17.93
2023-03-08T20:34:18.344Z,15.27
2023-03-08T20:36:47.464Z,15.13
2023-03-08T20:39:15.240Z,15.87
2023-03-08T20:41:42.947Z,14.67
2023-03-08T20:44:12.032Z,13.20
2023-03-08T20:46:39.776Z,16.03
2023-03-08T20:49:11.075Z,14.07
2023-03-08T20:51:38.788Z,13.43
2023-03-08T20:54:06.589Z,15.53
2023-03-08T20:56:34.260Z,15.80
2023-03-08T20:59:02.380Z,14.37
2023-03-08T21:01:31.926Z,15.40
2023-03-08T21:03:59.656Z,14.77
2023-03-08T21:06:30.142Z,16.40
2023-03-08T21:08:59.112Z,14.43
2023-03-08T21:11:26.853Z,19.53
2023-03-08T21:13:55.433Z,17.10
2023-03-08T21:16:25.293Z,15.40
2023-03-08T21:18:53.758Z,17.17
2023-03-08T21:21:24.244Z,16.23
2023-03-08T21:23:54.375Z,28.50
2023-03-08T21:26:22.302Z,20.07
2023-03-08T21:28:49.949Z,15.73
2023-03-08T21:31:19.949Z,19.17
2023-03-08T21:33:47.675Z,15.83
2023-03-08T21:36:15.556Z,19.57
2023-03-08T21:38:43.323Z,19.00
2023-03-08T21:41:18.764Z,14.10
2023-03-08T21:43:46.423Z,12.77
2023-03-08T21:46:14.202Z,14.50
2023-03-08T21:48:42.177Z,23.63
2023-03-08T21:51:11.084Z,14.57
2023-03-08T21:53:39.415Z,14.33
2023-03-08T21:56:08.232Z,18.10
2023-03-08T21:58:37.697Z,14.23
2023-03-08T22:01:06.394Z,15.60
2023-03-08T22:03:35.900Z,16.30
2023-03-08T22:06:03.588Z,18.17
2023-03-08T22:08:31.313Z,16.57
2023-03-08T22:10:59.037Z,16.60
2023-03-08T22:13:26.771Z,15.83
2023-03-08T22:15:56.242Z,14.87
2023-03-08T22:18:24.043Z,19.10
2023-03-08T22:20:51.758Z,17.37
2023-03-08T22:23:19.459Z,14.07
2023-03-08T22:25:47.275Z,15.13
2023-03-08T22:28:15.044Z,12.07
2023-03-08T22:30:42.776Z,14.03
2023-03-08T22:33:12.113Z,16.60
2023-03-08T22:35:39.893Z,17.37
2023-03-08T22:38:07.568Z,25.57
2023-03-08T22:40:38.301Z,14.50
2023-03-08T22:43:06.025Z,28.90
2023-03-08T22:45:34.564Z,23.77
2023-03-08T22:48:02.907Z,14.70
2023-03-08T22:50:32.104Z,20.57
2023-03-08T22:52:59.772Z,21.73
2023-03-08T22:55:27.471Z,25.87
2023-03-08T22:57:55.103Z,32.67
2023-03-08T23:00:22.876Z,21.60
2023-03-08T23:02:50.959Z,26.67
2023-03-08T23:05:20.644Z,27.53
2023-03-08T23:07:49.652Z,21.37
2023-03-08T23:10:18.133Z,17.33
2023-03-08T23:12:45.765Z,22.23
2023-03-08T23:15:13.677Z,25.83
2023-03-08T23:17:41.352Z,22.20
2023-03-08T23:21:23.746Z,22.80
2023-03-08T23:23:51.512Z,17.03
2023-03-08T23:26:23.868Z,18.63
2023-03-08T23:28:51.532Z,17.77
2023-03-08T23:31:20.832Z,21.47
2023-03-08T23:33:49.447Z,13.60
2023-03-08T23:36:19.967Z,21.13
2023-03-08T23:38:49.267Z,19.87
2023-03-08T23:41:17.991Z,18.57
2023-03-08T23:43:45.884Z,15.63
2023-03-08T23:46:15.190Z,16.23
2023-03-08T23:48:43.708Z,21.73
2023-03-08T23:51:14.194Z,23.70
2023-03-08T23:53:42.288Z,18.10
2023-03-08T23:56:18.598Z,25.63
2023-03-08T23:58:47.955Z,21.43
